Meise, Belgium
Current Conditions -  °F | °C
As of 5:50 AM on Saturday 25 Oct 2014 (Local Time) from EBBR Reporting Station
Broken Clouds Broken Clouds  
Wind Chill: 54°   Ceiling: 800
Heat Index: 54°   Visibility: 6mi
Dew Point: 50°   Wind: 12mph
Humidity: 88%   Direction: 230°SW
Pressure: 30.03"   Gusts: NA
Location:  50.94°N, 4.33°E
Report Text: EBBR 250350Z 23010KT 9000 FEW005 BKN008 12/10 Q1017 TEMPO 4000 BR
Loading
Personal Weather Stations






























Interactive Weather Map New forecast layout! Learn more

10-Day Weather Forecast

Advertisements
Track Severe Weather on mobile